createdAt,value
2022-12-31T00:01:24.079Z,99247.81
2022-12-31T00:03:51.640Z,99254.88
2022-12-31T00:06:36.432Z,99258.56
2022-12-31T00:09:08.951Z,99279.94
2022-12-31T00:11:37.810Z,99284.13
2022-12-31T00:14:06.061Z,99280.22
2022-12-31T00:16:39.040Z,99288.41
2022-12-31T00:19:09.669Z,99289.34
2022-12-31T00:21:38.043Z,99287.88
2022-12-31T00:24:06.958Z,99296.06
2022-12-31T00:26:37.180Z,99295.41
2022-12-31T00:29:07.649Z,99299.03
2022-12-31T00:31:38.858Z,99308.97
2022-12-31T00:34:07.301Z,99322.44
2022-12-31T00:36:39.581Z,99308.53
2022-12-31T00:39:08.678Z,99311.88
2022-12-31T00:41:35.912Z,99329.16
2022-12-31T00:44:03.420Z,99330.19
2022-12-31T00:46:31.666Z,99322.44
2022-12-31T00:48:58.649Z,99338.81
2022-12-31T00:51:28.965Z,99328.31
2022-12-31T00:53:59.002Z,99337.06
2022-12-31T00:56:30.786Z,99329.25
2022-12-31T00:59:01.629Z,99332.78
2022-12-31T01:01:34.627Z,99343.22
2022-12-31T01:04:21.099Z,99334.91
2022-12-31T01:06:48.929Z,99347.06
2022-12-31T01:09:20.106Z,99336.50
2022-12-31T01:11:51.098Z,99338.06
2022-12-31T01:14:20.369Z,99352.75
2022-12-31T01:16:54.425Z,99334.81
2022-12-31T01:19:28.421Z,99351.53
2022-12-31T01:21:56.345Z,99342.84
2022-12-31T01:24:25.841Z,99349.28
2022-12-31T01:26:52.780Z,99354.19
2022-12-31T01:29:19.667Z,99359.28
2022-12-31T01:31:49.829Z,99359.06
2022-12-31T01:34:16.487Z,99354.88
2022-12-31T01:36:46.246Z,99346.91
2022-12-31T01:39:13.565Z,99358.22
2022-12-31T01:41:45.085Z,99358.09
2022-12-31T01:44:11.622Z,99377.47
2022-12-31T01:46:52.286Z,99376.56
2022-12-31T01:49:42.324Z,99380.75
2022-12-31T01:52:25.460Z,99379.94
2022-12-31T01:55:14.753Z,99381.59
2022-12-31T01:57:49.640Z,99379.56
2022-12-31T02:00:22.482Z,99378.91
2022-12-31T02:02:50.140Z,99387.72
2022-12-31T02:05:35.719Z,99388.91
2022-12-31T02:08:04.181Z,99386.03
2022-12-31T02:10:30.859Z,99384.16
2022-12-31T02:12:58.963Z,99383.16
2022-12-31T02:16:05.327Z,99379.94
2022-12-31T02:18:44.882Z,99386.63
2022-12-31T02:21:36.984Z,99377.91
2022-12-31T02:24:37.961Z,99379.09
2022-12-31T02:27:53.221Z,99380.47
2022-12-31T02:30:30.020Z,99385.34
2022-12-31T02:33:36.754Z,99381.25
2022-12-31T02:36:19.068Z,99390.16
2022-12-31T02:38:50.174Z,99395.00
2022-12-31T02:41:39.433Z,99385.44
2022-12-31T02:44:35.264Z,99386.97
2022-12-31T02:48:07.458Z,99376.41
2022-12-31T02:51:12.058Z,99384.94
2022-12-31T02:54:22.528Z,99386.63
2022-12-31T02:57:30.849Z,99378.00
2022-12-31T03:00:29.361Z,99388.78
2022-12-31T03:03:02.589Z,99373.47
2022-12-31T03:05:38.281Z,99374.13
2022-12-31T03:08:05.532Z,99373.75
2022-12-31T03:10:35.268Z,99384.06
2022-12-31T03:13:02.654Z,99394.72
2022-12-31T03:15:37.391Z,99394.34
2022-12-31T03:18:07.995Z,99396.50
2022-12-31T03:21:09.452Z,99389.06
2022-12-31T03:23:50.169Z,99401.06
2022-12-31T03:26:17.082Z,99401.44
2022-12-31T03:28:50.156Z,99404.88
2022-12-31T03:31:19.876Z,99396.06
2022-12-31T03:33:49.099Z,99396.25
2022-12-31T03:36:15.777Z,99402.50
2022-12-31T03:38:42.672Z,99388.75
2022-12-31T03:41:12.281Z,99388.75
2022-12-31T03:43:39.141Z,99390.63
2022-12-31T03:46:06.083Z,99382.44
2022-12-31T03:48:35.404Z,99385.81
2022-12-31T03:51:02.177Z,99373.38
2022-12-31T03:53:28.926Z,99373.91
2022-12-31T03:55:58.948Z,99381.34
2022-12-31T03:58:25.655Z,99384.22
2022-12-31T04:00:52.345Z,99379.69
2022-12-31T04:03:19.090Z,99384.53
2022-12-31T04:05:55.013Z,99371.88
2022-12-31T04:08:22.072Z,99365.66
2022-12-31T04:10:48.726Z,99375.94
2022-12-31T04:13:15.394Z,99373.09
2022-12-31T04:15:42.282Z,99376.97
2022-12-31T04:18:08.995Z,99371.94
2022-12-31T04:20:35.679Z,99372.78
2022-12-31T04:23:02.344Z,99378.34
2022-12-31T04:25:29.067Z,99379.72
2022-12-31T04:27:55.706Z,99385.13
2022-12-31T04:30:22.403Z,99389.31
2022-12-31T04:32:49.346Z,99394.69
2022-12-31T04:35:18.905Z,99399.25
2022-12-31T04:37:48.264Z,99388.47
2022-12-31T04:40:17.799Z,99390.97
2022-12-31T04:42:44.417Z,99396.34
2022-12-31T04:45:14.886Z,99400.25
2022-12-31T04:47:41.513Z,99399.25
2022-12-31T04:50:08.571Z,99398.06
2022-12-31T04:52:40.527Z,99403.50
2022-12-31T04:55:10.060Z,99398.19
2022-12-31T04:57:36.676Z,99414.22
2022-12-31T05:00:13.697Z,99409.50
2022-12-31T05:02:40.555Z,99414.41
2022-12-31T05:05:08.022Z,99424.00
2022-12-31T05:07:34.697Z,99420.84
2022-12-31T05:10:01.306Z,99428.28
2022-12-31T05:12:28.065Z,99411.09
2022-12-31T05:14:57.164Z,99418.63
2022-12-31T05:17:23.965Z,99420.69
2022-12-31T05:19:53.382Z,99425.53
2022-12-31T05:35:54.771Z,99398.75
2022-12-31T05:41:08.843Z,99399.06
2022-12-31T06:40:11.944Z,99425.69
2022-12-31T06:42:42.225Z,99426.88
2022-12-31T06:45:12.256Z,99442.59
2022-12-31T06:47:39.007Z,99446.94
2022-12-31T06:50:07.069Z,99445.09
2022-12-31T06:58:00.469Z,99426.88
2022-12-31T07:07:04.214Z,99409.50
2022-12-31T07:09:53.275Z,99421.50
2022-12-31T07:13:03.774Z,99411.66
2022-12-31T07:16:29.858Z,99406.09
2022-12-31T07:48:37.004Z,99435.47
2022-12-31T07:51:04.475Z,99448.09
2022-12-31T07:53:32.023Z,99446.91
2022-12-31T07:56:04.166Z,99446.53
2022-12-31T07:59:24.650Z,99464.56
2022-12-31T08:03:11.284Z,99469.41
2022-12-31T08:06:12.298Z,99462.53
2022-12-31T08:08:58.670Z,99480.72
2022-12-31T08:12:01.831Z,99471.81
2022-12-31T08:14:31.975Z,99487.63
2022-12-31T08:16:59.037Z,99481.38
2022-12-31T08:19:34.875Z,99476.84
2022-12-31T08:22:28.773Z,99474.13
2022-12-31T08:25:43.333Z,99469.25
2022-12-31T08:29:01.276Z,99465.50
2022-12-31T08:32:08.099Z,99447.47
2022-12-31T08:35:52.193Z,99437.72
2022-12-31T08:39:00.548Z,99445.16
2022-12-31T08:41:59.585Z,99468.56
2022-12-31T08:44:51.451Z,99478.97
2022-12-31T08:47:55.067Z,99479.81
2022-12-31T08:50:29.104Z,99477.97
2022-12-31T08:52:56.402Z,99491.63
2022-12-31T08:55:23.789Z,99495.00
2022-12-31T08:58:37.808Z,99488.56
2022-12-31T09:01:08.695Z,99502.88
2022-12-31T09:04:15.793Z,99507.63
2022-12-31T09:07:11.866Z,99513.84
2022-12-31T09:10:48.843Z,99502.03
2022-12-31T09:14:00.810Z,99517.22
2022-12-31T09:17:04.753Z,99521.41
2022-12-31T09:19:31.448Z,99501.88
2022-12-31T09:21:58.710Z,99508.09
2022-12-31T09:24:25.940Z,99517.88
2022-12-31T09:27:40.466Z,99507.75
2022-12-31T09:30:19.362Z,99508.09
2022-12-31T09:33:12.573Z,99505.41
2022-12-31T09:36:00.651Z,99512.00
2022-12-31T09:39:13.612Z,99519.41
2022-12-31T09:42:44.332Z,99510.88
2022-12-31T09:46:09.614Z,99517.94
2022-12-31T09:49:52.765Z,99517.44
2022-12-31T09:52:52.292Z,99521.16
2022-12-31T09:55:36.904Z,99519.66
2022-12-31T09:58:27.615Z,99509.88
2022-12-31T10:01:39.844Z,99505.34
2022-12-31T10:05:16.223Z,99500.81
2022-12-31T10:08:12.071Z,99508.06
2022-12-31T10:10:58.985Z,99498.66
2022-12-31T10:13:41.940Z,99504.69
2022-12-31T10:17:04.663Z,99505.69
2022-12-31T10:20:16.989Z,99495.75
2022-12-31T10:23:59.802Z,99502.00
2022-12-31T10:26:53.071Z,99493.06
2022-12-31T10:30:16.237Z,99505.25
2022-12-31T10:33:10.910Z,99499.09
2022-12-31T10:36:08.786Z,99481.28
2022-12-31T10:39:25.965Z,99480.06
2022-12-31T10:42:44.044Z,99484.81
2022-12-31T10:46:22.445Z,99475.41
2022-12-31T10:49:20.231Z,99482.81
2022-12-31T10:52:35.568Z,99486.53
2022-12-31T10:56:01.123Z,99481.03
2022-12-31T10:58:58.957Z,99479.72
2022-12-31T11:01:55.083Z,99473.84
2022-12-31T11:05:00.700Z,99477.06
2022-12-31T11:07:54.608Z,99477.59
2022-12-31T11:11:04.010Z,99481.50
2022-12-31T12:16:28.787Z,99350.56
2022-12-31T12:19:28.117Z,99350.88
2022-12-31T12:54:18.506Z,99329.09
2022-12-31T12:57:28.360Z,99311.06
2022-12-31T13:00:48.557Z,99322.81
2022-12-31T13:04:33.649Z,99325.81
2022-12-31T13:08:20.831Z,99335.69
2022-12-31T13:12:00.933Z,99318.81
2022-12-31T13:15:12.318Z,99329.94
2022-12-31T13:18:26.530Z,99338.69
2022-12-31T13:22:13.045Z,99355.97
2022-12-31T13:24:48.159Z,99349.06
2022-12-31T13:27:44.201Z,99361.56
2022-12-31T13:30:40.209Z,99373.56
2022-12-31T13:33:09.674Z,99368.03
2022-12-31T13:36:05.286Z,99357.56
2022-12-31T13:38:57.996Z,99374.94
2022-12-31T13:41:43.493Z,99359.13
2022-12-31T13:44:37.861Z,99372.00
2022-12-31T13:47:20.501Z,99384.84
2022-12-31T13:50:14.123Z,99381.56
2022-12-31T13:53:07.335Z,99381.19
2022-12-31T13:56:03.468Z,99388.91
2022-12-31T13:59:06.271Z,99387.69
2022-12-31T14:01:54.917Z,99388.91
2022-12-31T14:04:41.671Z,99390.00
2022-12-31T14:07:40.389Z,99389.63
2022-12-31T14:11:29.540Z,99402.44
2022-12-31T14:15:29.244Z,99404.41
2022-12-31T14:18:52.917Z,99410.59
2022-12-31T14:21:53.712Z,99434.16
2022-12-31T14:25:06.040Z,99416.59
2022-12-31T14:27:41.657Z,99415.97
2022-12-31T14:30:25.522Z,99418.44
2022-12-31T14:33:12.196Z,99420.97
2022-12-31T14:36:27.995Z,99431.19
2022-12-31T14:40:00.681Z,99430.38
2022-12-31T14:42:55.129Z,99433.38
2022-12-31T14:46:28.147Z,99426.34
2022-12-31T14:49:37.223Z,99426.34
2022-12-31T14:52:16.294Z,99429.28
2022-12-31T14:54:43.131Z,99432.19
2022-12-31T14:58:09.688Z,99442.00
2022-12-31T15:00:38.333Z,99441.59
2022-12-31T15:03:34.251Z,99444.47
2022-12-31T15:06:47.864Z,99454.06
2022-12-31T15:10:05.301Z,99446.41
2022-12-31T15:13:05.610Z,99457.69
2022-12-31T15:15:53.656Z,99453.56
2022-12-31T15:18:57.230Z,99462.16
2022-12-31T15:56:45.302Z,99503.47
2022-12-31T15:59:18.636Z,99503.84
2022-12-31T16:01:50.481Z,99499.91
2022-12-31T16:04:25.570Z,99510.28
2022-12-31T16:07:03.433Z,99518.38
2022-12-31T16:09:37.918Z,99516.50
2022-12-31T16:12:19.617Z,99514.84
2022-12-31T16:14:55.510Z,99526.97
2022-12-31T16:29:00.505Z,99528.75
2022-12-31T16:31:30.378Z,99520.38
2022-12-31T16:34:15.134Z,99533.00
2022-12-31T16:36:42.543Z,99548.38
2022-12-31T16:39:35.468Z,99539.19
2022-12-31T16:42:14.535Z,99552.84
2022-12-31T16:44:41.692Z,99555.72
2022-12-31T16:47:40.261Z,99550.66
2022-12-31T16:56:43.728Z,99549.22
2022-12-31T17:29:28.881Z,99572.78
2022-12-31T17:32:33.926Z,99570.91
2022-12-31T17:55:12.377Z,99571.97
2022-12-31T17:57:56.703Z,99582.28
2022-12-31T18:00:27.652Z,99579.78
2022-12-31T18:05:35.279Z,99568.34
2022-12-31T18:08:01.927Z,99577.00
2022-12-31T18:10:36.328Z,99586.97
2022-12-31T18:13:14.449Z,99587.16
2022-12-31T18:38:14.403Z,99556.31
2022-12-31T18:40:50.713Z,99574.56
2022-12-31T18:43:25.359Z,99565.63
2022-12-31T18:45:54.721Z,99577.00
2022-12-31T19:35:16.196Z,99584.13
2022-12-31T19:37:49.633Z,99578.88
2022-12-31T19:40:29.953Z,99592.38
2022-12-31T19:42:58.348Z,99598.63
2022-12-31T19:45:34.352Z,99597.94
2022-12-31T19:48:01.396Z,99606.44
2022-12-31T19:50:28.940Z,99604.38
2022-12-31T20:41:41.500Z,99573.22
2022-12-31T20:44:08.700Z,99569.91
2022-12-31T21:49:00.655Z,99533.97
2022-12-31T21:51:29.066Z,99536.03
2022-12-31T22:18:57.355Z,99563.72
2022-12-31T22:29:36.423Z,99559.31
2022-12-31T23:38:49.985Z,99554.38
2022-12-31T23:41:20.598Z,99564.41
2022-12-31T23:43:48.420Z,99554.00
2022-12-31T23:46:17.122Z,99562.69
